Time;durP1;ratioP1;P1;durP2;ratioP2;P2;SDS_P1;SDS_P2;PMS_P1;PMS_P2;Temp;Humidity;BMP_temperature;BMP_pressure;BME280_temperature;BME280_humidity;BME280_pressure;Samples;Min_cycle;Max_cycle;Signal;HPM_P1;HPM_P2
2021/11/25 00:01:29;;;;;;;;;88.75;73.75;;;;;;;;6417327;22;9488;-80
2021/11/25 00:03:56;;;;;;;;;83.00;66.00;;;;;;;;6416519;22;8825;-80
2021/11/25 00:06:22;;;;;;;;;93.75;83.50;;;;;;;;6417033;22;8713;-80
2021/11/25 00:08:47;;;;;;;;;89.67;78.33;;;;;;;;6416765;22;8887;-80
2021/11/25 00:11:12;;;;;;;;;90.33;79.67;;;;;;;;6416694;22;8787;-80
2021/11/25 00:13:38;;;;;;;;;92.33;78.00;;;;;;;;6416709;22;8753;-80
2021/11/25 00:16:03;;;;;;;;;82.75;67.75;;;;;;;;6416883;22;8780;-80
2021/11/25 00:18:29;;;;;;;;;92.75;80.75;;;;;;;;6387629;22;8749;-80
2021/11/25 00:20:54;;;;;;;;;86.75;68.75;;;;;;;;6387066;22;8736;-80
2021/11/25 00:23:20;;;;;;;;;92.67;82.67;;;;;;;;6416552;22;9441;-80
2021/11/25 00:25:45;;;;;;;;;82.67;66.67;;;;;;;;6416986;22;8844;-80
2021/11/25 00:28:10;;;;;;;;;97.25;84.00;;;;;;;;6387227;22;8795;-80
2021/11/25 00:30:36;;;;;;;;;90.00;76.25;;;;;;;;6388187;22;8760;-80
2021/11/25 00:33:01;;;;;;;;;92.75;82.25;;;;;;;;6416242;22;8789;-80
2021/11/25 00:35:27;;;;;;;;;88.75;75.00;;;;;;;;6387917;22;8765;-80
2021/11/25 00:37:52;;;;;;;;;84.00;67.50;;;;;;;;6416571;22;8818;-80
2021/11/25 00:40:18;;;;;;;;;92.75;82.25;;;;;;;;6416877;22;8757;-80
2021/11/25 00:42:44;;;;;;;;;89.80;77.00;;;;;;;;6416270;22;8756;-80
2021/11/25 00:45:10;;;;;;;;;93.60;82.80;;;;;;;;6416373;22;8685;-80
2021/11/25 00:47:36;;;;;;;;;80.50;63.50;;;;;;;;6387434;22;8778;-80
2021/11/25 00:50:03;;;;;;;;;83.75;67.00;;;;;;;;6416160;22;12204;-80
2021/11/25 00:52:28;;;;;;;;;91.00;76.50;;;;;;;;6416453;22;8681;-80
2021/11/25 00:54:54;;;;;;;;;93.50;83.00;;;;;;;;6387141;22;8833;-80
2021/11/25 00:57:19;;;;;;;;;89.00;75.00;;;;;;;;6387887;22;8737;-80
2021/11/25 00:59:45;;;;;;;;;88.75;67.75;;;;;;;;6416678;22;8819;-80
2021/11/25 01:02:10;;;;;;;;;80.75;64.75;;;;;;;;6415948;22;8777;-79
2021/11/25 01:04:35;;;;;;;;;77.00;62.25;;;;;;;;6387756;22;8801;-80
2021/11/25 01:07:01;;;;;;;;;80.50;64.00;;;;;;;;6416033;22;9389;-80
2021/11/25 01:09:26;;;;;;;;;82.00;65.67;;;;;;;;6416578;22;9452;-79
2021/11/25 01:11:57;;;;;;;;;77.75;63.75;;;;;;;;6416468;22;8994;-78
2021/11/25 01:14:23;;;;;;;;;74.00;57.75;;;;;;;;6416518;22;8759;-78
2021/11/25 01:16:48;;;;;;;;;78.25;63.00;;;;;;;;6416581;22;8725;-78
2021/11/25 01:19:14;;;;;;;;;80.50;64.75;;;;;;;;6387214;22;8792;-79
2021/11/25 01:22:13;;;;;;;;;77.00;61.25;;;;;;;;6416153;22;8765;-82
2021/11/25 01:25:54;;;;;;;;;;;;;;;;;;;;;
2021/11/25 01:27:50;;;;;;;;;78.00;62.50;;;;;;;;6398044;22;8763;-80
2021/11/25 01:30:18;;;;;;;;;78.75;62.25;;;;;;;;6416395;22;8729;-80
2021/11/25 01:32:52;;;;;;;;;72.50;58.50;;;;;;;;6416146;22;8713;-80
2021/11/25 01:35:35;;;;;;;;;79.25;64.50;;;;;;;;6416427;22;8871;-80
2021/11/25 01:38:01;;;;;;;;;83.00;67.67;;;;;;;;6387175;22;8654;-79
2021/11/25 01:40:29;;;;;;;;;73.67;60.00;;;;;;;;6416428;22;9481;-81
2021/11/25 01:43:09;;;;;;;;;;;;;;;;;;;;;
2021/11/25 01:46:11;;;;;;;;;;;;;;;;;;;;;
2021/11/25 01:52:21;;;;;;;;;;;;;;;;;;;;;
2021/11/25 01:55:23;;;;;;;;;80.50;65.00;;;;;;;;6415333;22;35793;-80
2021/11/25 01:57:50;;;;;;;;;85.40;69.20;;;;;;;;6416780;22;8835;-79
2021/11/25 02:00:30;;;;;;;;;82.00;67.00;;;;;;;;6415411;22;9678;-79
2021/11/25 02:02:57;;;;;;;;;83.50;66.00;;;;;;;;6386322;22;10936;-79
2021/11/25 02:05:22;;;;;;;;;77.00;63.00;;;;;;;;6416030;22;8745;-80
2021/11/25 02:07:50;;;;;;;;;74.50;61.75;;;;;;;;6387959;22;8748;-79
2021/11/25 02:10:18;;;;;;;;;83.67;67.33;;;;;;;;6387131;22;8745;-79
2021/11/25 02:12:44;;;;;;;;;78.50;62.75;;;;;;;;6387690;22;8768;-79
2021/11/25 02:15:14;;;;;;;;;81.50;65.00;;;;;;;;6386681;22;8733;-79
2021/11/25 02:17:39;;;;;;;;;86.00;69.33;;;;;;;;6415704;22;8717;-79
2021/11/25 02:20:09;;;;;;;;;81.25;64.00;;;;;;;;6415279;22;8749;-79
2021/11/25 02:22:39;;;;;;;;;71.25;56.00;;;;;;;;6415471;22;8713;-79
2021/11/25 02:25:14;;;;;;;;;73.50;60.75;;;;;;;;6415164;22;8841;-79
2021/11/25 02:27:41;;;;;;;;;78.75;64.50;;;;;;;;6416117;22;8759;-79
2021/11/25 02:30:09;;;;;;;;;92.00;76.40;;;;;;;;6415682;22;12475;-79
2021/11/25 02:38:23;;;;;;;;;88.75;75.50;;;;;;;;6392334;22;8937;-80
2021/11/25 02:41:03;;;;;;;;;;;;;;;;;;;;;
2021/11/25 02:44:00;;;;;;;;;85.50;68.50;;;;;;;;6413875;22;36231;-80
2021/11/25 02:46:32;;;;;;;;;;;;;;;;;;;;;
2021/11/25 02:49:07;;;;;;;;;80.75;65.75;;;;;;;;6415648;22;36285;-80
2021/11/25 02:52:11;;;;;;;;;;;;;;;;;;;;;
2021/11/25 03:01:36;;;;;;;;;;;;;;;;;;;;;
2021/11/25 03:04:15;;;;;;;;;;;;;;;;;;;;;
2021/11/25 03:06:43;;;;;;;;;87.00;69.60;;;;;;;;6415670;22;36064;-79
2021/11/25 03:09:09;;;;;;;;;87.75;70.50;;;;;;;;6387695;22;8752;-79
2021/11/25 03:11:39;;;;;;;;;90.00;75.33;;;;;;;;6417095;22;11489;-79
2021/11/25 03:14:09;;;;;;;;;81.00;65.00;;;;;;;;6416816;22;8745;-79
2021/11/25 03:16:40;;;;;;;;;86.40;69.80;;;;;;;;6417127;22;8759;-79
2021/11/25 03:22:42;;;;;;;;;81.25;66.00;;;;;;;;6364006;22;8863;-80
2021/11/25 03:25:17;;;;;;;;;;;;;;;;;;;;;
2021/11/25 03:28:03;;;;;;;;;88.00;70.40;;;;;;;;6415952;22;37054;-79
2021/11/25 03:30:34;;;;;;;;;89.75;72.25;;;;;;;;6387580;22;8752;-80
2021/11/25 03:33:04;;;;;;;;;78.75;61.75;;;;;;;;6416385;22;8756;-79
2021/11/25 03:35:32;;;;;;;;;85.00;66.50;;;;;;;;6387892;22;8812;-80
2021/11/25 03:38:02;;;;;;;;;86.75;71.50;;;;;;;;6387782;22;11602;-79
2021/11/25 03:40:31;;;;;;;;;74.50;61.00;;;;;;;;6388238;22;8745;-79
2021/11/25 03:43:16;;;;;;;;;81.00;64.50;;;;;;;;6415653;22;11495;-79
2021/11/25 03:46:04;;;;;;;;;;;;;;;;;;;;;
2021/11/25 03:49:02;;;;;;;;;;;;;;;;;;;;;
2021/11/25 03:51:39;;;;;;;;;80.75;65.25;;;;;;;;6405485;22;35128;-80
2021/11/25 03:54:26;;;;;;;;;81.00;66.25;;;;;;;;6387704;22;8748;-79
2021/11/25 03:57:12;;;;;;;;;75.50;61.50;;;;;;;;6387959;22;9334;-80
2021/11/25 04:00:22;;;;;;;;;;;;;;;;;;;;;
2021/11/25 04:02:49;;;;;;;;;74.50;59.25;;;;;;;;6415197;22;35682;-80
2021/11/25 04:05:24;;;;;;;;;62.00;52.75;;;;;;;;6387896;22;8822;-79
2021/11/25 04:08:02;;;;;;;;;63.50;53.75;;;;;;;;6417354;22;8831;-80
2021/11/25 04:10:38;;;;;;;;;71.25;59.25;;;;;;;;6388108;22;8753;-80
2021/11/25 04:13:06;;;;;;;;;77.50;60.75;;;;;;;;6387864;22;8741;-80
2021/11/25 04:15:31;;;;;;;;;72.75;59.00;;;;;;;;6416866;22;8791;-79
2021/11/25 04:18:00;;;;;;;;;74.25;61.25;;;;;;;;6416223;22;8732;-79
2021/11/25 04:20:44;;;;;;;;;;;;;;;;;;;;;
2021/11/25 04:23:20;;;;;;;;;;;;;;;;;;;;;
2021/11/25 04:25:55;;;;;;;;;76.75;61.00;;;;;;;;6415782;22;35963;-79
2021/11/25 04:28:30;;;;;;;;;65.75;54.25;;;;;;;;6417158;22;9566;-79
2021/11/25 04:40:12;;;;;;;;;74.25;59.75;;;;;;;;6393677;22;8906;-80
2021/11/25 04:42:37;;;;;;;;;73.00;60.75;;;;;;;;6395381;22;8773;-79
2021/11/25 04:45:06;;;;;;;;;78.00;64.00;;;;;;;;6416435;22;8963;-79
2021/11/25 04:47:32;;;;;;;;;70.25;56.25;;;;;;;;6416494;22;11205;-79
2021/11/25 04:49:57;;;;;;;;;79.00;64.75;;;;;;;;6416211;22;8843;-79
2021/11/25 04:52:23;;;;;;;;;71.67;59.33;;;;;;;;6416769;22;8753;-79
2021/11/25 04:58:44;;;;;;;;;72.00;59.25;;;;;;;;6164176;23;8871;-80
2021/11/25 05:01:22;;;;;;;;;;;;;;;;;;;;;
2021/11/25 05:04:41;;;;;;;;;;;;;;;;;;;;;
2021/11/25 05:07:16;;;;;;;;;82.75;66.25;;;;;;;;6290830;22;8816;-80
2021/11/25 05:09:42;;;;;;;;;79.50;63.75;;;;;;;;6387135;22;8763;-80
2021/11/25 05:12:17;;;;;;;;;76.75;62.00;;;;;;;;6416384;22;8749;-80
2021/11/25 05:14:44;;;;;;;;;78.25;60.25;;;;;;;;6387797;22;8737;-80
2021/11/25 05:17:10;;;;;;;;;76.33;62.00;;;;;;;;6415887;22;8713;-79
2021/11/25 05:19:35;;;;;;;;;89.50;72.75;;;;;;;;6387549;22;9572;-80
2021/11/25 05:22:01;;;;;;;;;86.75;69.75;;;;;;;;6387132;22;8785;-79
2021/11/25 05:24:26;;;;;;;;;72.50;60.25;;;;;;;;6416662;22;8839;-79
2021/11/25 05:26:52;;;;;;;;;73.50;60.25;;;;;;;;6416581;22;8741;-79
2021/11/25 05:29:18;;;;;;;;;86.00;67.50;;;;;;;;6387318;22;9300;-79
2021/11/25 05:31:43;;;;;;;;;89.00;69.00;;;;;;;;6416777;22;8764;-79
2021/11/25 05:34:09;;;;;;;;;89.25;70.75;;;;;;;;6387147;22;8763;-79
2021/11/25 05:36:34;;;;;;;;;97.00;84.67;;;;;;;;6416491;22;8713;-79
2021/11/25 05:38:59;;;;;;;;;95.50;78.75;;;;;;;;6416025;22;8788;-79
2021/11/25 05:41:25;;;;;;;;;97.00;84.33;;;;;;;;6387309;22;8769;-78
2021/11/25 05:43:50;;;;;;;;;90.00;73.67;;;;;;;;6416723;22;8741;-79
2021/11/25 05:46:15;;;;;;;;;102.33;89.00;;;;;;;;6416104;22;8825;-79
2021/11/25 05:48:41;;;;;;;;;102.75;96.75;;;;;;;;6387342;22;8954;-79
2021/11/25 05:51:06;;;;;;;;;107.50;101.25;;;;;;;;6414880;22;8737;-79
2021/11/25 05:53:32;;;;;;;;;113.50;108.25;;;;;;;;6416674;22;8784;-79
2021/11/25 05:55:57;;;;;;;;;121.50;115.50;;;;;;;;6386965;22;8761;-79
2021/11/25 05:58:22;;;;;;;;;143.00;136.25;;;;;;;;6416263;22;8745;-80
2021/11/25 06:00:48;;;;;;;;;125.00;122.00;;;;;;;;6416355;22;8741;-80
2021/11/25 06:03:14;;;;;;;;;127.50;120.75;;;;;;;;6415332;22;8725;-79
2021/11/25 06:05:39;;;;;;;;;112.25;106.25;;;;;;;;6416151;22;12359;-79
2021/11/25 06:08:05;;;;;;;;;125.00;117.50;;;;;;;;6415749;22;8844;-79
2021/11/25 06:10:30;;;;;;;;;110.20;106.40;;;;;;;;6387172;22;8776;-79
2021/11/25 06:12:56;;;;;;;;;105.60;91.60;;;;;;;;6415761;22;9440;-80
2021/11/25 06:15:22;;;;;;;;;113.00;107.20;;;;;;;;6416355;22;8721;-79
2021/11/25 06:17:47;;;;;;;;;116.25;107.75;;;;;;;;6415882;22;11082;-78
2021/11/25 06:20:13;;;;;;;;;114.00;105.75;;;;;;;;6414657;22;8744;-78
2021/11/25 06:22:40;;;;;;;;;105.50;95.75;;;;;;;;6416485;22;8872;-78
2021/11/25 06:25:06;;;;;;;;;104.00;93.40;;;;;;;;6415598;22;8696;-78
2021/11/25 06:27:31;;;;;;;;;101.60;89.80;;;;;;;;6387318;22;9484;-78
2021/11/25 06:29:57;;;;;;;;;98.25;81.25;;;;;;;;6415824;22;8764;-77
2021/11/25 06:32:22;;;;;;;;;97.25;83.25;;;;;;;;6415781;22;8800;-78
2021/11/25 06:34:48;;;;;;;;;101.25;90.00;;;;;;;;6416334;22;8914;-78
2021/11/25 06:37:13;;;;;;;;;99.40;81.00;;;;;;;;6415703;22;8744;-77
2021/11/25 06:39:39;;;;;;;;;105.00;89.75;;;;;;;;6416321;22;8751;-77
2021/11/25 06:42:04;;;;;;;;;103.75;96.50;;;;;;;;6415334;22;8872;-77
2021/11/25 06:44:30;;;;;;;;;102.00;89.25;;;;;;;;6416002;22;8781;-77
2021/11/25 06:46:55;;;;;;;;;104.00;91.00;;;;;;;;6416102;22;8740;-78
2021/11/25 06:49:20;;;;;;;;;92.67;72.67;;;;;;;;6415948;22;8791;-78
2021/11/25 06:51:46;;;;;;;;;96.50;80.50;;;;;;;;6415826;22;8749;-78
2021/11/25 06:54:11;;;;;;;;;103.67;90.00;;;;;;;;6386823;22;9329;-78
2021/11/25 06:56:36;;;;;;;;;96.00;78.25;;;;;;;;6386698;22;8857;-78
2021/11/25 06:59:04;;;;;;;;;103.33;90.67;;;;;;;;6415507;22;8757;-78
2021/11/25 07:01:30;;;;;;;;;98.00;85.50;;;;;;;;6415577;22;8753;-78
2021/11/25 07:03:55;;;;;;;;;92.00;70.75;;;;;;;;6386722;22;8772;-78
2021/11/25 07:06:34;;;;;;;;;102.00;88.25;;;;;;;;6415262;22;8717;-79
2021/11/25 07:08:59;;;;;;;;;98.40;81.20;;;;;;;;6386728;22;8815;-77
2021/11/25 07:11:24;;;;;;;;;106.67;92.33;;;;;;;;6386934;22;8853;-80
2021/11/25 07:13:50;;;;;;;;;93.75;76.50;;;;;;;;6415997;22;8736;-78
2021/11/25 07:16:16;;;;;;;;;104.75;89.75;;;;;;;;6415095;22;9279;-78
2021/11/25 07:18:41;;;;;;;;;105.50;93.75;;;;;;;;6386495;22;8767;-78
2021/11/25 07:21:07;;;;;;;;;100.00;83.75;;;;;;;;6414686;22;11498;-78
2021/11/25 07:23:32;;;;;;;;;103.67;89.00;;;;;;;;6386842;22;8900;-78
2021/11/25 07:25:57;;;;;;;;;100.00;89.00;;;;;;;;6414881;22;8720;-77
2021/11/25 07:28:23;;;;;;;;;100.00;82.00;;;;;;;;6415570;22;8737;-78
2021/11/25 07:30:48;;;;;;;;;80.67;64.67;;;;;;;;6415970;22;8769;-78
2021/11/25 07:33:13;;;;;;;;;99.00;80.25;;;;;;;;6416549;22;9483;-78
2021/11/25 07:35:43;;;;;;;;;105.25;90.00;;;;;;;;6416762;22;8808;-78
2021/11/25 07:38:09;;;;;;;;;95.25;77.50;;;;;;;;6416372;22;8818;-78
2021/11/25 07:40:35;;;;;;;;;101.00;84.00;;;;;;;;6416803;22;9041;-78
2021/11/25 07:43:01;;;;;;;;;106.25;91.50;;;;;;;;6416123;22;8776;-78
2021/11/25 07:45:27;;;;;;;;;99.75;79.75;;;;;;;;6417083;22;9592;-78
2021/11/25 07:47:52;;;;;;;;;84.67;67.33;;;;;;;;6416662;22;8741;-78
2021/11/25 07:50:25;;;;;;;;;105.25;93.50;;;;;;;;6387902;22;8773;-78
2021/11/25 07:52:50;;;;;;;;;97.00;76.00;;;;;;;;6417074;22;8827;-78
2021/11/25 07:55:17;;;;;;;;;97.50;80.00;;;;;;;;6387857;22;8761;-77
2021/11/25 07:57:43;;;;;;;;;104.80;91.00;;;;;;;;6417000;22;8756;-77
2021/11/25 08:00:09;;;;;;;;;95.75;82.25;;;;;;;;6416742;22;8778;-77
2021/11/25 08:02:35;;;;;;;;;97.50;83.50;;;;;;;;6416547;22;8771;-77
2021/11/25 08:05:00;;;;;;;;;101.00;87.00;;;;;;;;6416611;22;9755;-77
2021/11/25 08:07:25;;;;;;;;;96.00;73.50;;;;;;;;6417122;22;8744;-77
2021/11/25 08:09:51;;;;;;;;;101.25;87.25;;;;;;;;6416940;22;8767;-77
2021/11/25 08:12:16;;;;;;;;;89.00;70.00;;;;;;;;6387850;22;8749;-77
2021/11/25 08:14:42;;;;;;;;;105.00;92.00;;;;;;;;6416658;22;8823;-77
2021/11/25 08:17:09;;;;;;;;;110.00;103.75;;;;;;;;6416180;22;8818;-77
2021/11/25 08:19:35;;;;;;;;;98.00;80.80;;;;;;;;6417031;22;9767;-77
2021/11/25 08:22:01;;;;;;;;;99.33;80.67;;;;;;;;6416186;22;8749;-77
2021/11/25 08:24:26;;;;;;;;;101.25;90.00;;;;;;;;6417142;22;9763;-77
2021/11/25 08:26:52;;;;;;;;;104.50;88.50;;;;;;;;6388262;22;8752;-77
2021/11/25 08:29:17;;;;;;;;;97.67;79.00;;;;;;;;6417090;22;9529;-77
2021/11/25 08:31:43;;;;;;;;;103.25;94.50;;;;;;;;6416366;22;11105;-77
2021/11/25 08:34:08;;;;;;;;;104.50;92.75;;;;;;;;6416351;22;8756;-77
2021/11/25 08:36:33;;;;;;;;;99.75;87.25;;;;;;;;6416532;22;8744;-77
2021/11/25 08:38:58;;;;;;;;;100.00;87.75;;;;;;;;6415989;22;8905;-77
2021/11/25 08:41:25;;;;;;;;;111.75;100.75;;;;;;;;6416473;22;8830;-77
2021/11/25 08:43:51;;;;;;;;;105.00;94.75;;;;;;;;6415828;22;8721;-77
2021/11/25 08:46:16;;;;;;;;;102.75;95.00;;;;;;;;6416372;22;11546;-77
2021/11/25 08:48:42;;;;;;;;;120.20;110.80;;;;;;;;6416479;22;8821;-77
2021/11/25 08:51:08;;;;;;;;;121.50;114.50;;;;;;;;6416472;22;8677;-77
2021/11/25 08:53:33;;;;;;;;;110.00;100.50;;;;;;;;6416995;22;8788;-77
2021/11/25 08:55:58;;;;;;;;;120.20;111.00;;;;;;;;6416354;22;8740;-77
2021/11/25 08:58:24;;;;;;;;;129.25;125.25;;;;;;;;6387993;22;9514;-77
2021/11/25 09:00:50;;;;;;;;;128.33;121.00;;;;;;;;6416515;22;11548;-77
2021/11/25 09:03:15;;;;;;;;;119.20;109.20;;;;;;;;6415780;22;8761;-77
2021/11/25 09:05:41;;;;;;;;;164.80;159.20;;;;;;;;6387704;22;8783;-77
2021/11/25 09:08:06;;;;;;;;;119.75;116.00;;;;;;;;6416124;22;8745;-77
2021/11/25 09:10:33;;;;;;;;;136.25;130.00;;;;;;;;6416848;22;8741;-77
2021/11/25 09:12:59;;;;;;;;;132.20;126.20;;;;;;;;6415776;22;11630;-77
2021/11/25 09:15:24;;;;;;;;;148.50;143.50;;;;;;;;6416887;22;8737;-77
2021/11/25 09:17:50;;;;;;;;;132.20;130.00;;;;;;;;6416217;22;8737;-77
2021/11/25 09:20:15;;;;;;;;;129.25;123.00;;;;;;;;6415997;22;8752;-77
2021/11/25 09:22:40;;;;;;;;;136.50;126.75;;;;;;;;6416539;22;9501;-77
2021/11/25 09:25:06;;;;;;;;;136.67;129.67;;;;;;;;6415969;22;8737;-77
2021/11/25 09:27:31;;;;;;;;;142.40;135.20;;;;;;;;6416547;22;9539;-77
2021/11/25 09:29:57;;;;;;;;;112.00;110.00;;;;;;;;6415792;22;8732;-77
2021/11/25 09:32:22;;;;;;;;;103.25;93.25;;;;;;;;6416315;22;8753;-77
2021/11/25 09:34:48;;;;;;;;;105.00;91.50;;;;;;;;6416663;22;9572;-77
2021/11/25 09:37:13;;;;;;;;;103.67;93.00;;;;;;;;6416031;22;8729;-77
2021/11/25 09:39:38;;;;;;;;;94.33;80.67;;;;;;;;6388026;22;8756;-77
2021/11/25 09:42:04;;;;;;;;;85.33;68.33;;;;;;;;6415710;22;8800;-77
2021/11/25 09:44:29;;;;;;;;;96.67;79.67;;;;;;;;6416765;22;8865;-77
2021/11/25 09:46:57;;;;;;;;;93.00;76.25;;;;;;;;6415796;22;8741;-77
2021/11/25 09:49:23;;;;;;;;;87.50;68.50;;;;;;;;6416617;22;8705;-77
2021/11/25 09:51:49;;;;;;;;;92.00;75.80;;;;;;;;6416524;22;8744;-77
2021/11/25 09:54:15;;;;;;;;;99.00;84.00;;;;;;;;6415932;22;8747;-77
2021/11/25 09:56:40;;;;;;;;;101.50;94.75;;;;;;;;6416550;22;8753;-77
2021/11/25 09:59:05;;;;;;;;;105.67;100.33;;;;;;;;6415752;22;8740;-77
2021/11/25 10:01:31;;;;;;;;;101.33;89.33;;;;;;;;6415848;22;9504;-77
2021/11/25 10:03:57;;;;;;;;;99.00;85.67;;;;;;;;6415798;22;8763;-77
2021/11/25 10:06:23;;;;;;;;;85.25;67.00;;;;;;;;6416027;22;8744;-77
2021/11/25 10:08:49;;;;;;;;;94.00;74.75;;;;;;;;6416502;22;8721;-77
2021/11/25 10:11:16;;;;;;;;;93.25;77.75;;;;;;;;6415431;22;9499;-77
2021/11/25 10:13:47;;;;;;;;;92.25;73.75;;;;;;;;6416736;22;8661;-77
2021/11/25 10:16:20;;;;;;;;;91.00;70.50;;;;;;;;6415670;22;8843;-77
2021/11/25 10:18:46;;;;;;;;;99.00;88.00;;;;;;;;6416505;22;8698;-77
2021/11/25 10:21:13;;;;;;;;;96.00;84.25;;;;;;;;6415256;22;9440;-77
2021/11/25 10:23:39;;;;;;;;;98.20;84.00;;;;;;;;6416371;22;8772;-77
2021/11/25 10:26:06;;;;;;;;;99.50;90.00;;;;;;;;6415845;22;8737;-77
2021/11/25 10:28:40;;;;;;;;;98.40;87.60;;;;;;;;6416242;22;8705;-77
2021/11/25 10:31:10;;;;;;;;;110.75;106.75;;;;;;;;6415223;22;9724;-77
2021/11/25 10:34:00;;;;;;;;;87.75;71.25;;;;;;;;6386951;22;8756;-77
2021/11/25 10:36:35;;;;;;;;;92.60;82.60;;;;;;;;6415797;22;8767;-77
2021/11/25 10:39:07;;;;;;;;;100.00;88.40;;;;;;;;6415800;22;8732;-77
2021/11/25 10:41:33;;;;;;;;;93.40;77.00;;;;;;;;6415591;22;8803;-77
2021/11/25 10:44:03;;;;;;;;;87.50;70.25;;;;;;;;6415621;22;8733;-77
2021/11/25 10:46:46;;;;;;;;;91.67;73.00;;;;;;;;6415349;22;8693;-77
2021/11/25 10:49:12;;;;;;;;;88.00;71.33;;;;;;;;6415075;22;8733;-77
2021/11/25 10:51:38;;;;;;;;;88.50;69.75;;;;;;;;6415452;22;8737;-77
2021/11/25 10:54:15;;;;;;;;;90.00;73.75;;;;;;;;6386806;22;8741;-77
2021/11/25 10:56:47;;;;;;;;;88.00;68.50;;;;;;;;6415327;22;8721;-77
2021/11/25 10:59:14;;;;;;;;;85.33;68.67;;;;;;;;6386311;22;11592;-78
2021/11/25 11:01:43;;;;;;;;;89.75;72.00;;;;;;;;6414910;22;10139;-77
2021/11/25 11:04:10;;;;;;;;;82.25;65.00;;;;;;;;6415149;22;8779;-78
2021/11/25 11:06:37;;;;;;;;;91.50;77.25;;;;;;;;6416079;22;8740;-78
2021/11/25 11:09:04;;;;;;;;;87.50;73.00;;;;;;;;6416323;22;8694;-78
2021/11/25 11:11:30;;;;;;;;;91.25;74.75;;;;;;;;6416738;22;8725;-77
2021/11/25 11:14:19;;;;;;;;;84.75;69.50;;;;;;;;6416344;22;8697;-78
2021/11/25 11:16:48;;;;;;;;;89.00;71.00;;;;;;;;6416431;22;8787;-77
2021/11/25 11:19:15;;;;;;;;;91.40;73.80;;;;;;;;6415950;22;11474;-77
2021/11/25 11:21:51;;;;;;;;;91.40;76.80;;;;;;;;6416513;22;8768;-77
2021/11/25 11:24:21;;;;;;;;;86.00;68.75;;;;;;;;6387661;22;8722;-77
2021/11/25 11:26:48;;;;;;;;;90.40;75.80;;;;;;;;6416701;22;11450;-78
2021/11/25 11:29:16;;;;;;;;;91.25;77.00;;;;;;;;6415924;22;8859;-77
2021/11/25 11:31:42;;;;;;;;;87.67;73.67;;;;;;;;6387106;22;8862;-78
2021/11/25 11:34:09;;;;;;;;;85.00;64.00;;;;;;;;6387301;22;11501;-77
2021/11/25 11:36:38;;;;;;;;;83.20;65.60;;;;;;;;6416604;22;8768;-77
2021/11/25 11:39:03;;;;;;;;;84.25;68.25;;;;;;;;6387347;22;8734;-77
2021/11/25 11:41:31;;;;;;;;;89.50;67.25;;;;;;;;6416687;22;12380;-78
2021/11/25 11:43:57;;;;;;;;;79.00;61.25;;;;;;;;6416663;22;8717;-78
2021/11/25 11:46:23;;;;;;;;;94.25;84.00;;;;;;;;6416852;22;8737;-78
2021/11/25 11:48:51;;;;;;;;;84.80;66.60;;;;;;;;6417067;22;8729;-78
2021/11/25 11:51:18;;;;;;;;;90.00;79.75;;;;;;;;6416208;22;8749;-78
2021/11/25 11:53:45;;;;;;;;;95.67;85.00;;;;;;;;6387753;22;8752;-77
2021/11/25 11:56:13;;;;;;;;;89.60;74.40;;;;;;;;6416559;22;10293;-78
2021/11/25 11:58:50;;;;;;;;;87.20;70.00;;;;;;;;6416883;22;8755;-77
2021/11/25 12:01:16;;;;;;;;;86.25;68.75;;;;;;;;6416308;22;8741;-77
2021/11/25 12:03:52;;;;;;;;;90.50;78.75;;;;;;;;6416943;22;8810;-77
2021/11/25 12:06:32;;;;;;;;;89.80;82.40;;;;;;;;6416560;22;8849;-77
2021/11/25 12:08:58;;;;;;;;;91.00;79.60;;;;;;;;6416548;22;9598;-78
2021/11/25 12:11:35;;;;;;;;;94.00;87.00;;;;;;;;6416830;22;8827;-77
2021/11/25 12:14:02;;;;;;;;;93.20;81.20;;;;;;;;6386730;22;8769;-77
2021/11/25 12:16:29;;;;;;;;;94.25;86.75;;;;;;;;6416352;22;8741;-78
2021/11/25 12:18:55;;;;;;;;;90.00;77.20;;;;;;;;6416292;22;8710;-78
2021/11/25 12:21:46;;;;;;;;;102.75;92.75;;;;;;;;6416328;22;8749;-78
2021/11/25 12:24:20;;;;;;;;;98.50;89.25;;;;;;;;6407935;22;9219;-78
2021/11/25 12:26:55;;;;;;;;;91.60;82.20;;;;;;;;6387507;22;8879;-77
2021/11/25 12:29:37;;;;;;;;;92.50;82.25;;;;;;;;6387655;22;8757;-77
2021/11/25 12:32:38;;;;;;;;;94.25;81.50;;;;;;;;6415889;22;10597;-77
2021/11/25 12:35:19;;;;;;;;;88.50;74.00;;;;;;;;6415984;22;8773;-77
2021/11/25 12:37:47;;;;;;;;;91.25;79.25;;;;;;;;6387670;22;10297;-77
2021/11/25 12:40:22;;;;;;;;;89.80;79.40;;;;;;;;6415992;22;8841;-77
2021/11/25 12:42:49;;;;;;;;;101.50;96.25;;;;;;;;6416627;22;8777;-77
2021/11/25 12:45:22;;;;;;;;;96.00;88.80;;;;;;;;6416177;22;8837;-77
2021/11/25 12:47:47;;;;;;;;;94.60;86.00;;;;;;;;6416521;22;8750;-77
2021/11/25 12:50:20;;;;;;;;;101.00;96.00;;;;;;;;6416148;22;8764;-77
2021/11/25 12:52:45;;;;;;;;;82.80;65.60;;;;;;;;6387872;22;11488;-77
2021/11/25 12:55:11;;;;;;;;;98.25;91.50;;;;;;;;6416298;22;9515;-77
2021/11/25 12:57:56;;;;;;;;;91.00;83.40;;;;;;;;6416814;22;8725;-77
2021/11/25 13:00:24;;;;;;;;;94.00;82.40;;;;;;;;6416839;22;8725;-78
2021/11/25 13:03:08;;;;;;;;;96.40;88.60;;;;;;;;6416010;22;8764;-78
2021/11/25 13:05:35;;;;;;;;;94.60;89.40;;;;;;;;6416438;22;8737;-77
2021/11/25 13:08:03;;;;;;;;;95.60;86.60;;;;;;;;6416284;22;8741;-77
2021/11/25 13:10:31;;;;;;;;;92.75;80.50;;;;;;;;6388110;22;8725;-77
2021/11/25 13:13:09;;;;;;;;;85.60;70.80;;;;;;;;6416104;22;8729;-78
2021/11/25 13:15:35;;;;;;;;;90.80;76.40;;;;;;;;6416945;22;8745;-78
2021/11/25 13:18:02;;;;;;;;;95.67;88.67;;;;;;;;6415854;22;8749;-78
2021/11/25 13:20:47;;;;;;;;;79.80;66.80;;;;;;;;6416605;22;10803;-78
2021/11/25 13:23:14;;;;;;;;;93.00;77.00;;;;;;;;6415923;22;8772;-77
2021/11/25 13:25:55;;;;;;;;;91.00;74.80;;;;;;;;6416722;22;11718;-77
2021/11/25 13:28:28;;;;;;;;;93.00;84.25;;;;;;;;6416328;22;8947;-77
2021/11/25 13:31:10;;;;;;;;;101.00;92.20;;;;;;;;6416187;22;8834;-77
2021/11/25 13:33:54;;;;;;;;;93.60;85.80;;;;;;;;6416634;22;8867;-77
2021/11/25 13:36:21;;;;;;;;;91.60;80.20;;;;;;;;6387478;22;8871;-77
2021/11/25 13:38:50;;;;;;;;;90.00;78.60;;;;;;;;6416501;22;8721;-78
2021/11/25 13:41:17;;;;;;;;;91.40;75.20;;;;;;;;6415775;22;9639;-78
2021/11/25 13:44:01;;;;;;;;;81.75;68.25;;;;;;;;6387713;22;8757;-78
2021/11/25 13:46:37;;;;;;;;;90.25;80.00;;;;;;;;6416266;22;9756;-78
2021/11/25 13:49:04;;;;;;;;;90.75;80.75;;;;;;;;6386981;22;9025;-77
2021/11/25 13:51:29;;;;;;;;;87.20;71.40;;;;;;;;6416539;22;8745;-77
2021/11/25 13:54:02;;;;;;;;;83.50;68.25;;;;;;;;6416287;22;8767;-77
2021/11/25 13:56:28;;;;;;;;;92.75;86.00;;;;;;;;6416452;22;8745;-78
2021/11/25 13:58:54;;;;;;;;;94.20;88.60;;;;;;;;6416267;22;8726;-77
2021/11/25 14:01:19;;;;;;;;;87.50;74.75;;;;;;;;6415969;22;8751;-77
2021/11/25 14:03:45;;;;;;;;;90.75;74.75;;;;;;;;6416617;22;8855;-78
2021/11/25 14:06:21;;;;;;;;;85.67;69.33;;;;;;;;6415746;22;8837;-78
2021/11/25 14:08:46;;;;;;;;;91.00;78.00;;;;;;;;6416630;22;8725;-78
2021/11/25 14:11:12;;;;;;;;;92.67;76.33;;;;;;;;6415039;22;8760;-78
2021/11/25 14:13:38;;;;;;;;;96.25;88.50;;;;;;;;6416243;22;8708;-79
2021/11/25 14:16:14;;;;;;;;;92.00;78.67;;;;;;;;6415681;22;8757;-79
2021/11/25 14:18:42;;;;;;;;;92.00;86.25;;;;;;;;6416306;22;8737;-79
2021/11/25 14:21:08;;;;;;;;;93.80;80.60;;;;;;;;6415475;22;8741;-79
2021/11/25 14:23:36;;;;;;;;;93.25;80.50;;;;;;;;6416080;22;8804;-79
2021/11/25 14:26:31;;;;;;;;;91.00;80.20;;;;;;;;6415798;22;8729;-78
2021/11/25 14:31:52;;;;;;;;;88.25;77.00;;;;;;;;6415577;22;8722;-78
2021/11/25 14:34:40;;;;;;;;;88.00;68.00;;;;;;;;6415791;22;8856;-79
2021/11/25 14:37:22;;;;;;;;;93.00;82.75;;;;;;;;6415094;22;8729;-79
2021/11/25 14:39:47;;;;;;;;;85.50;70.75;;;;;;;;6415478;22;8828;-79
2021/11/25 14:42:22;;;;;;;;;94.75;84.00;;;;;;;;6416606;22;8796;-79
2021/11/25 14:45:06;;;;;;;;;91.00;78.50;;;;;;;;6417471;22;8814;-79
2021/11/25 14:47:47;;;;;;;;;85.25;72.50;;;;;;;;6417151;22;8669;-79
2021/11/25 14:53:12;;;;;;;;;94.25;83.00;;;;;;;;6416436;22;9694;-79
2021/11/25 14:55:49;;;;;;;;;96.25;89.50;;;;;;;;6388388;22;9599;-79
2021/11/25 14:58:14;;;;;;;;;93.20;79.80;;;;;;;;6416897;22;8762;-79
2021/11/25 15:00:41;;;;;;;;;108.75;98.50;;;;;;;;6416930;22;8737;-79
2021/11/25 15:03:09;;;;;;;;;95.50;83.75;;;;;;;;6416449;22;8808;-79
2021/11/25 15:05:35;;;;;;;;;90.75;78.75;;;;;;;;6416974;22;8783;-79
2021/11/25 15:08:01;;;;;;;;;96.50;88.25;;;;;;;;6388097;22;8725;-79
2021/11/25 15:10:49;;;;;;;;;100.75;96.50;;;;;;;;6417159;22;8725;-79
2021/11/25 15:13:17;;;;;;;;;101.00;90.00;;;;;;;;6416827;22;11503;-79
2021/11/25 15:15:44;;;;;;;;;90.75;77.75;;;;;;;;6416819;22;9625;-79
2021/11/25 15:18:10;;;;;;;;;90.40;79.60;;;;;;;;6387538;22;8749;-79
2021/11/25 15:20:36;;;;;;;;;98.50;88.50;;;;;;;;6416565;22;8819;-79
2021/11/25 15:23:01;;;;;;;;;95.25;89.00;;;;;;;;6416628;22;8845;-79
2021/11/25 15:25:27;;;;;;;;;98.75;91.75;;;;;;;;6416950;22;8895;-79
2021/11/25 15:27:59;;;;;;;;;97.50;90.25;;;;;;;;6388428;22;8853;-79
2021/11/25 15:30:27;;;;;;;;;93.67;84.00;;;;;;;;6417200;22;8933;-79
2021/11/25 15:32:54;;;;;;;;;102.50;96.75;;;;;;;;6387766;22;10098;-79
2021/11/25 15:35:23;;;;;;;;;96.00;93.00;;;;;;;;6416956;22;8686;-79